Time;durP1;ratioP1;P1;durP2;ratioP2;P2;SDS_P1;SDS_P2;PMS_P1;PMS_P2;Temp;Humidity;BMP_temperature;BMP_pressure;BME280_temperature;BME280_humidity;BME280_pressure;Samples;Min_cycle;Max_cycle;Signal;HPM_P1;HPM_P2
2022/07/23 00:00:46;;;;;;;3.50;1.60;;;23.70;92.40;;;;;;4959093;28;20439;-91
2022/07/23 00:03:12;;;;;;;4.57;1.60;;;23.80;92.70;;;;;;4975890;28;20028;-92
2022/07/23 00:09:22;;;;;;;2.92;1.48;;;23.70;92.90;;;;;;4983406;28;20092;-90
2022/07/23 01:03:56;;;;;;;3.83;1.27;;;22.80;93.90;;;;;;5240944;22;20065;-91
2022/07/23 01:09:47;;;;;;;2.17;1.00;;;22.90;93.80;;;;;;4993982;28;20049;-89
2022/07/23 01:12:38;;;;;;;1.83;0.85;;;22.80;93.70;;;;;;4978613;28;20402;-90
2022/07/23 01:15:44;;;;;;;3.63;1.30;;;22.80;93.70;;;;;;4977365;28;20022;-90
2022/07/23 01:32:49;;;;;;;2.67;0.82;;;22.70;93.90;;;;;;5015450;28;19924;-90
2022/07/23 01:35:15;;;;;;;2.05;0.88;;;22.60;93.60;;;;;;4989656;28;20030;-90
2022/07/23 01:37:48;;;;;;;2.33;1.17;;;22.70;94.00;;;;;;4994294;28;20390;-90
2022/07/23 01:40:55;;;;;;;2.22;0.93;;;22.70;93.80;;;;;;5014437;28;20045;-90
2022/07/23 02:18:05;;;;;;;4.20;1.10;;;22.50;95.30;;;;;;1300195;22;21664;-89
2022/07/23 02:23:00;;;;;;;3.67;1.50;;;22.20;95.90;;;;;;5046308;23;20065;-89
2022/07/23 02:25:26;;;;;;;1.95;1.00;;;22.10;96.10;;;;;;4997545;28;20026;-90
2022/07/23 02:27:52;;;;;;;1.85;0.80;;;22.10;96.60;;;;;;5010345;28;20023;-90
2022/07/23 02:30:17;;;;;;;2.50;1.10;;;22.10;96.80;;;;;;4997404;28;20486;-89
2022/07/23 02:32:43;;;;;;;2.38;1.10;;;22.20;97.10;;;;;;4987574;28;20022;-90
2022/07/23 02:35:12;;;;;;;2.60;1.23;;;22.20;97.10;;;;;;4981446;28;20050;-89
2022/07/23 02:37:38;;;;;;;2.47;1.10;;;22.20;97.10;;;;;;4984371;28;20019;-89
2022/07/23 02:40:04;;;;;;;1.98;1.08;;;22.20;97.30;;;;;;4974394;28;20048;-88
2022/07/23 02:42:29;;;;;;;2.72;0.98;;;22.20;97.30;;;;;;4983844;28;20649;-89
2022/07/23 02:44:55;;;;;;;3.03;1.10;;;22.20;97.30;;;;;;4981074;28;20035;-89
2022/07/23 02:47:21;;;;;;;2.33;0.85;;;22.20;97.10;;;;;;4980435;28;20036;-89
2022/07/23 02:49:46;;;;;;;2.70;1.00;;;22.30;97.30;;;;;;4977582;28;20023;-89
2022/07/23 02:52:12;;;;;;;1.73;0.98;;;22.30;97.50;;;;;;4982781;28;20149;-89
2022/07/23 02:54:38;;;;;;;3.80;1.25;;;22.30;97.40;;;;;;4985639;28;20015;-88
2022/07/23 02:57:04;;;;;;;2.17;1.10;;;22.30;97.50;;;;;;4983363;28;20062;-89
2022/07/23 02:59:29;;;;;;;2.63;0.90;;;22.30;97.10;;;;;;4981013;28;20533;-90
2022/07/23 03:01:55;;;;;;;3.17;1.17;;;22.30;97.30;;;;;;4979916;28;20046;-90
2022/07/23 03:04:21;;;;;;;2.50;1.20;;;22.30;97.40;;;;;;4973863;28;20105;-90
2022/07/23 03:06:46;;;;;;;2.53;1.15;;;22.40;97.40;;;;;;4981817;28;20372;-89
2022/07/23 03:09:12;;;;;;;3.00;1.05;;;22.40;97.20;;;;;;4983749;28;20037;-90
2022/07/23 03:11:41;;;;;;;2.45;1.30;;;22.30;97.20;;;;;;5004426;28;20426;-90
2022/07/23 03:14:07;;;;;;;3.22;1.30;;;22.30;97.30;;;;;;4980779;28;20033;-89
2022/07/23 03:16:33;;;;;;;2.83;1.38;;;22.30;97.60;;;;;;4982454;28;20014;-89
2022/07/23 03:18:58;;;;;;;2.70;1.17;;;22.30;98.00;;;;;;4977772;28;20053;-90
2022/07/23 03:21:24;;;;;;;2.42;0.95;;;22.30;97.90;;;;;;4974280;28;20402;-89
2022/07/23 03:23:50;;;;;;;2.13;1.02;;;22.30;98.00;;;;;;4984762;28;20398;-89
2022/07/23 03:26:15;;;;;;;2.63;1.10;;;22.30;98.30;;;;;;4980103;28;20045;-90
2022/07/23 03:28:46;;;;;;;2.13;1.10;;;22.30;98.00;;;;;;4982947;28;20080;-90
2022/07/23 03:31:15;;;;;;;3.08;1.40;;;22.30;97.90;;;;;;4975329;28;20500;-90
2022/07/23 03:33:50;;;;;;;3.30;1.20;;;22.30;98.10;;;;;;4981024;28;20045;-90
2022/07/23 03:36:28;;;;;;;4.05;1.35;;;22.30;98.20;;;;;;4981065;28;20026;-90
2022/07/23 03:38:59;;;;;;;2.78;1.17;;;22.30;98.20;;;;;;4981544;28;20022;-89
2022/07/23 03:41:25;;;;;;;2.50;1.20;;;22.20;98.10;;;;;;4983360;28;20026;-89
2022/07/23 03:43:51;;;;;;;3.50;1.33;;;22.30;98.30;;;;;;4985438;28;20410;-89
2022/07/23 03:46:16;;;;;;;3.40;1.50;;;22.20;98.40;;;;;;4973110;28;20089;-89
2022/07/23 03:48:42;;;;;;;3.53;1.30;;;22.20;98.50;;;;;;4983588;28;20081;-90
2022/07/23 03:51:08;;;;;;;4.32;1.65;;;22.20;98.70;;;;;;4981649;28;20034;-90
2022/07/23 03:53:45;;;;;;;3.03;1.20;;;22.20;98.70;;;;;;4985918;28;20077;-90
2022/07/23 03:56:35;;;;;;;3.75;1.35;;;22.10;98.80;;;;;;4977489;28;20095;-90
2022/07/23 03:59:03;;;;;;;2.35;1.08;;;22.10;98.90;;;;;;4973655;28;20030;-90
2022/07/23 04:01:39;;;;;;;2.90;1.35;;;22.10;99.10;;;;;;4987287;28;20065;-90
2022/07/23 04:04:33;;;;;;;3.10;1.25;;;22.00;99.00;;;;;;4987167;28;20026;-90
2022/07/23 04:06:59;;;;;;;2.70;1.25;;;21.90;99.40;;;;;;4988277;28;20033;-89
2022/07/23 04:09:24;;;;;;;1.88;0.95;;;21.80;99.30;;;;;;4991088;28;20080;-90
2022/07/23 04:11:50;;;;;;;4.07;1.20;;;21.80;99.70;;;;;;4988663;28;20023;-89
2022/07/23 04:14:16;;;;;;;3.28;1.48;;;21.70;99.90;;;;;;4984770;28;20399;-89
2022/07/23 04:16:41;;;;;;;3.22;1.38;;;21.80;99.90;;;;;;4988525;28;20029;-89
2022/07/23 04:19:07;;;;;;;5.22;1.27;;;21.60;99.90;;;;;;4987596;28;20033;-89
2022/07/23 04:21:33;;;;;;;3.60;1.25;;;21.70;99.90;;;;;;4989630;28;20037;-88
2022/07/23 04:23:58;;;;;;;3.60;1.17;;;21.80;99.90;;;;;;4986864;28;20044;-89
2022/07/23 04:26:24;;;;;;;2.88;1.10;;;21.80;99.90;;;;;;4981587;28;20052;-89
2022/07/23 04:28:50;;;;;;;3.63;1.42;;;21.80;99.90;;;;;;4986723;28;20081;-89
2022/07/23 04:31:18;;;;;;;3.08;1.40;;;21.90;99.90;;;;;;5007818;28;20006;-90
2022/07/23 04:33:44;;;;;;;3.15;1.33;;;21.90;99.90;;;;;;5024401;28;20722;-89
2022/07/23 04:36:10;;;;;;;2.70;1.40;;;21.80;99.90;;;;;;5006355;28;20030;-90
2022/07/23 04:38:35;;;;;;;3.13;1.25;;;21.90;99.90;;;;;;5006532;28;20050;-89
2022/07/23 04:41:01;;;;;;;3.38;1.20;;;21.90;99.90;;;;;;4999931;28;20033;-88
2022/07/23 04:43:27;;;;;;;3.60;1.33;;;21.90;99.90;;;;;;5000234;28;20021;-89
2022/07/23 04:45:52;;;;;;;3.92;1.48;;;21.90;99.90;;;;;;5000526;28;20438;-89
2022/07/23 04:48:18;;;;;;;3.30;1.30;;;21.90;99.90;;;;;;4986219;28;20110;-89
2022/07/23 04:50:43;;;;;;;2.83;1.58;;;22.00;99.90;;;;;;4976558;28;20033;-89
2022/07/23 04:53:09;;;;;;;2.15;1.05;;;22.00;99.90;;;;;;4977032;28;20073;-89
2022/07/23 04:55:35;;;;;;;4.95;1.67;;;22.00;99.90;;;;;;4973939;28;20027;-90
2022/07/23 04:58:00;;;;;;;2.72;1.40;;;22.10;99.90;;;;;;4976312;28;20050;-89
2022/07/23 05:00:26;;;;;;;4.18;1.50;;;22.20;99.90;;;;;;4968284;28;20509;-89
2022/07/23 05:02:52;;;;;;;3.97;1.67;;;22.20;99.90;;;;;;4969393;28;20029;-89
2022/07/23 05:05:18;;;;;;;2.65;1.40;;;22.40;99.90;;;;;;4974834;28;20116;-89
2022/07/23 05:07:44;;;;;;;2.50;1.20;;;22.40;99.90;;;;;;4987078;28;20022;-90
2022/07/23 05:10:09;;;;;;;6.28;1.70;;;22.40;99.90;;;;;;4983576;28;20056;-89
2022/07/23 05:12:35;;;;;;;3.45;1.50;;;22.40;99.90;;;;;;4966900;28;20246;-89
2022/07/23 05:15:01;;;;;;;2.72;1.20;;;22.50;99.90;;;;;;4980305;28;20495;-90
2022/07/23 05:17:27;;;;;;;2.55;1.25;;;22.60;99.90;;;;;;4973580;28;20023;-89
2022/07/23 05:19:52;;;;;;;3.35;1.60;;;22.60;99.90;;;;;;4983659;28;20030;-89
2022/07/23 05:22:18;;;;;;;3.60;1.58;;;22.60;99.90;;;;;;4974322;28;20037;-89
2022/07/23 05:24:44;;;;;;;4.18;1.77;;;22.70;99.90;;;;;;4981368;28;20038;-89
2022/07/23 05:27:09;;;;;;;3.53;1.60;;;22.80;99.90;;;;;;4978734;28;20030;-88
2022/07/23 05:29:35;;;;;;;3.83;2.00;;;22.80;99.90;;;;;;4990568;28;20026;-88
2022/07/23 05:32:01;;;;;;;3.40;1.60;;;22.80;99.90;;;;;;4988636;28;20107;-88
2022/07/23 05:34:26;;;;;;;3.28;1.70;;;22.80;99.80;;;;;;4974323;28;20509;-87
2022/07/23 05:36:52;;;;;;;2.95;1.40;;;22.80;99.90;;;;;;4978682;28;20034;-89
2022/07/23 05:39:18;;;;;;;3.65;1.70;;;22.80;99.90;;;;;;4980178;28;20022;-88
2022/07/23 05:41:43;;;;;;;2.97;1.55;;;22.90;99.90;;;;;;4980522;28;20458;-87
2022/07/23 05:44:09;;;;;;;4.30;1.83;;;23.00;99.90;;;;;;4980394;28;20045;-90
2022/07/23 05:46:34;;;;;;;5.25;1.70;;;23.00;99.90;;;;;;4971458;28;20031;-90
2022/07/23 05:49:00;;;;;;;4.05;1.98;;;23.00;99.90;;;;;;4980756;28;20075;-90
2022/07/23 05:51:28;;;;;;;3.53;1.70;;;22.90;99.90;;;;;;4981871;28;20113;-89
2022/07/23 05:53:54;;;;;;;3.63;1.65;;;23.00;99.90;;;;;;4983796;28;20023;-90
2022/07/23 05:56:20;;;;;;;4.00;1.65;;;23.00;99.90;;;;;;4987369;28;20025;-88
2022/07/23 05:58:46;;;;;;;2.95;1.55;;;23.10;99.90;;;;;;4991478;28;20120;-88
2022/07/23 06:01:11;;;;;;;3.47;1.63;;;23.10;99.90;;;;;;5008310;28;20501;-89
2022/07/23 06:03:38;;;;;;;3.20;1.70;;;23.20;99.90;;;;;;4988095;28;20029;-89
2022/07/23 06:06:04;;;;;;;3.25;1.60;;;23.20;99.90;;;;;;4991273;28;20049;-88
2022/07/23 06:08:30;;;;;;;3.00;1.65;;;23.10;99.90;;;;;;4983920;28;20019;-89
2022/07/23 06:10:55;;;;;;;5.03;1.45;;;22.90;99.90;;;;;;4981586;28;20037;-90
2022/07/23 06:13:21;;;;;;;3.30;1.83;;;22.90;99.90;;;;;;4981526;28;20037;-89
2022/07/23 06:16:02;;;;;;;4.32;1.70;;;23.00;99.90;;;;;;4988177;28;20028;-89
2022/07/23 06:18:31;;;;;;;4.00;1.90;;;23.10;99.90;;;;;;4990349;28;20648;-90
2022/07/23 06:21:05;;;;;;;3.42;1.83;;;23.20;99.90;;;;;;4979671;28;20046;-89
2022/07/23 06:23:36;;;;;;;3.47;1.50;;;23.10;99.90;;;;;;4988296;28;20038;-90
2022/07/23 06:26:27;;;;;;;3.35;1.92;;;23.20;99.90;;;;;;4981412;28;20037;-89
2022/07/23 06:29:17;;;;;;;3.78;2.08;;;23.20;99.90;;;;;;4956941;28;20122;-90
2022/07/23 06:32:02;;;;;;;4.00;1.70;;;23.50;99.90;;;;;;4999608;28;20034;-89
2022/07/23 06:34:41;;;;;;;3.35;1.80;;;23.80;99.70;;;;;;4988506;28;20023;-89
2022/07/23 06:37:22;;;;;;;4.03;1.98;;;24.10;99.10;;;;;;4976361;28;20034;-90
2022/07/23 06:39:50;;;;;;;4.30;1.88;;;24.20;99.00;;;;;;4974394;28;20034;-88
2022/07/23 06:42:21;;;;;;;4.13;1.95;;;24.20;98.50;;;;;;5005625;28;20042;-89
2022/07/23 06:44:52;;;;;;;3.08;1.65;;;24.10;98.30;;;;;;4976968;28;20029;-89
2022/07/23 06:47:18;;;;;;;3.33;1.60;;;24.00;98.60;;;;;;4979677;28;20114;-89
2022/07/23 06:49:54;;;;;;;4.25;1.70;;;24.10;98.50;;;;;;4983278;28;20046;-90
2022/07/23 06:52:20;;;;;;;3.85;1.70;;;24.10;98.20;;;;;;4984724;28;20038;-90
2022/07/23 06:54:53;;;;;;;3.50;1.48;;;24.30;98.40;;;;;;5004920;28;20536;-91
2022/07/23 06:57:19;;;;;;;3.15;1.58;;;24.20;98.30;;;;;;4984731;28;20022;-90
2022/07/23 06:59:45;;;;;;;3.95;1.60;;;24.30;98.40;;;;;;4973939;28;20054;-91
2022/07/23 07:02:11;;;;;;;3.88;2.10;;;24.20;97.80;;;;;;4990492;28;20034;-91
2022/07/23 07:04:38;;;;;;;4.07;1.80;;;24.20;97.90;;;;;;4984804;28;20026;-89
2022/07/23 07:07:05;;;;;;;3.75;1.65;;;24.20;97.60;;;;;;4990249;28;20139;-89
2022/07/23 07:09:33;;;;;;;3.72;1.40;;;24.20;97.20;;;;;;4992720;28;20088;-89
2022/07/23 07:11:59;;;;;;;4.15;1.65;;;24.00;97.50;;;;;;4976438;28;20035;-90
2022/07/23 07:14:25;;;;;;;5.38;1.58;;;24.00;97.40;;;;;;4983168;28;20518;-89
2022/07/23 07:16:51;;;;;;;3.40;1.88;;;23.80;97.50;;;;;;4988786;28;20048;-89
2022/07/23 07:19:17;;;;;;;3.47;1.73;;;23.80;97.50;;;;;;4973566;28;20561;-89
2022/07/23 07:21:42;;;;;;;4.93;2.00;;;23.60;97.50;;;;;;4972896;28;20089;-89
2022/07/23 07:24:09;;;;;;;3.25;1.58;;;23.70;97.70;;;;;;4982366;28;20037;-88
2022/07/23 07:26:35;;;;;;;3.40;1.67;;;23.70;97.70;;;;;;4982182;28;20050;-89
2022/07/23 07:29:00;;;;;;;3.35;1.77;;;23.60;97.30;;;;;;4975569;28;20498;-88
2022/07/23 07:31:26;;;;;;;3.20;1.50;;;23.60;97.40;;;;;;4978949;28;20037;-89
2022/07/23 07:33:52;;;;;;;3.65;1.77;;;23.60;97.20;;;;;;4990825;28;20030;-89
2022/07/23 07:36:18;;;;;;;3.25;1.55;;;23.50;97.30;;;;;;4984056;28;20025;-89
2022/07/23 07:38:47;;;;;;;3.47;1.55;;;23.40;97.40;;;;;;4983696;28;20110;-89
2022/07/23 07:41:13;;;;;;;4.03;1.60;;;23.50;97.70;;;;;;4985562;28;20030;-89
2022/07/23 07:43:41;;;;;;;4.40;1.80;;;23.50;97.70;;;;;;4997462;28;20057;-89
2022/07/23 07:46:09;;;;;;;3.00;1.50;;;23.50;97.50;;;;;;4983627;28;20033;-88
2022/07/23 07:48:37;;;;;;;3.60;1.58;;;23.60;97.30;;;;;;4981163;28;20076;-89
2022/07/23 07:51:03;;;;;;;3.33;1.77;;;23.80;97.20;;;;;;4983393;28;20026;-89
2022/07/23 07:53:32;;;;;;;3.33;1.92;;;24.10;97.20;;;;;;4974140;28;20041;-89
2022/07/23 07:55:57;;;;;;;3.17;1.40;;;24.20;96.90;;;;;;4979374;28;20034;-89
2022/07/23 07:58:23;;;;;;;3.60;1.90;;;24.60;96.80;;;;;;4999387;28;20018;-89
2022/07/23 08:00:49;;;;;;;4.63;1.65;;;24.70;96.20;;;;;;4984477;28;20022;-89
2022/07/23 08:03:14;;;;;;;4.47;2.00;;;24.80;95.90;;;;;;4979461;28;20150;-90
2022/07/23 08:05:40;;;;;;;3.30;1.75;;;24.90;96.40;;;;;;4982993;28;20479;-91
2022/07/23 08:08:25;;;;;;;3.63;1.70;;;25.00;97.10;;;;;;4993541;28;20121;-92
2022/07/23 08:11:04;;;;;;;3.95;2.03;;;25.00;97.40;;;;;;4984353;28;20479;-91
2022/07/23 08:13:33;;;;;;;2.70;1.60;;;25.00;97.30;;;;;;4983926;28;20026;-91
2022/07/23 08:15:59;;;;;;;3.70;1.75;;;25.00;97.00;;;;;;5003977;28;20034;-92
2022/07/23 08:18:32;;;;;;;3.10;1.60;;;25.10;96.60;;;;;;4985914;28;20077;-92
2022/07/23 08:21:08;;;;;;;3.35;1.58;;;25.00;96.50;;;;;;4979635;28;20482;-91
2022/07/23 08:23:41;;;;;;;4.05;1.42;;;24.80;95.90;;;;;;4972701;28;20041;-91
2022/07/23 08:26:16;;;;;;;5.32;1.95;;;24.70;95.90;;;;;;4980761;28;20045;-92
2022/07/23 08:28:58;;;;;;;3.63;1.75;;;24.40;95.90;;;;;;4978026;28;20100;-92
2022/07/23 08:31:32;;;;;;;3.63;1.73;;;24.10;96.50;;;;;;4992156;28;20030;-92
2022/07/23 08:34:09;;;;;;;3.03;1.48;;;24.10;96.50;;;;;;4991261;28;20094;-91
2022/07/23 08:36:42;;;;;;;3.50;1.77;;;24.00;96.60;;;;;;4970868;28;20076;-92
2022/07/23 08:39:15;;;;;;;4.07;1.60;;;24.00;97.20;;;;;;4977820;28;20061;-92
2022/07/23 08:41:58;;;;;;;2.90;1.40;;;24.00;97.30;;;;;;4973697;28;20023;-92
2022/07/23 08:44:42;;;;;;;2.88;1.50;;;24.10;97.40;;;;;;4982925;28;20034;-92
2022/07/23 08:47:46;;;;;;;3.85;1.77;;;24.20;97.10;;;;;;5005684;28;20037;-94
2022/07/23 09:00:40;;;;;;;2.97;1.60;;;24.90;95.70;;;;;;4942773;29;20044;-94
2022/07/23 09:10:10;;;;;;;2.80;1.40;;;25.90;94.30;;;;;;4860877;29;20047;-89
2022/07/23 09:12:37;;;;;;;4.18;1.80;;;25.60;94.00;;;;;;4996374;28;20042;-89
2022/07/23 09:15:08;;;;;;;4.60;1.52;;;25.70;92.70;;;;;;5001695;28;20113;-88
2022/07/23 09:17:42;;;;;;;3.20;1.30;;;25.70;93.00;;;;;;4995789;28;20165;-89
2022/07/23 09:20:15;;;;;;;2.85;1.30;;;25.80;93.10;;;;;;4970037;28;20030;-87
2022/07/23 09:22:47;;;;;;;2.90;1.60;;;25.90;93.00;;;;;;4971805;28;20023;-89
2022/07/23 09:25:13;;;;;;;;;;;26.20;93.20;;;;;;4979439;28;20050;-89
2022/07/23 09:27:57;;;;;;;3.53;1.65;;;26.30;92.50;;;;;;5004924;28;19913;-89
2022/07/23 09:30:29;;;;;;;3.40;1.80;;;26.40;92.40;;;;;;4973055;28;20122;-89
2022/07/23 09:33:20;;;;;;;2.83;1.35;;;26.30;92.50;;;;;;4980486;28;20565;-89
2022/07/23 09:35:56;;;;;;;2.47;1.27;;;26.70;92.90;;;;;;4978004;28;20447;-89
2022/07/23 09:38:24;;;;;;;3.20;1.67;;;27.00;91.40;;;;;;4984191;28;20034;-88
2022/07/23 09:41:10;;;;;;;3.70;1.63;;;27.20;91.40;;;;;;5006698;28;20018;-89
2022/07/23 09:43:36;;;;;;;2.70;1.40;;;27.10;91.10;;;;;;4995042;28;20405;-89
2022/07/23 09:46:26;;;;;;;3.33;1.63;;;27.10;91.70;;;;;;5004459;28;20552;-89
2022/07/23 09:48:54;;;;;;;3.30;1.97;;;27.00;91.00;;;;;;4981970;28;20026;-89
2022/07/23 09:51:41;;;;;;;3.00;1.77;;;27.10;91.30;;;;;;5004816;28;20642;-89
2022/07/23 09:54:48;;;;;;;;;;;;;;;;;;;;;
2022/07/23 09:57:34;;;;;;;3.50;1.42;;;26.90;90.20;;;;;;5002023;28;20073;-92
2022/07/23 10:03:16;;;;;;;2.92;1.48;;;27.20;90.90;;;;;;5331155;23;20053;-91
2022/07/23 10:05:48;;;;;;;3.55;1.60;;;27.30;91.00;;;;;;4973716;28;20597;-91
2022/07/23 10:08:37;;;;;;;3.83;1.50;;;27.70;90.30;;;;;;4977971;28;20026;-91
2022/07/23 10:11:17;;;;;;;3.35;1.80;;;28.30;90.10;;;;;;4976885;28;20049;-92
2022/07/23 10:14:16;;;;;;;3.78;1.70;;;28.60;90.30;;;;;;4988088;28;20042;-92
2022/07/23 10:17:09;;;;;;;3.25;1.52;;;29.30;89.60;;;;;;4969920;28;20399;-91
2022/07/23 10:19:43;;;;;;;3.03;1.52;;;29.00;87.00;;;;;;4962367;28;20034;-92
2022/07/23 10:22:32;;;;;;;3.28;1.45;;;29.40;86.50;;;;;;4974300;28;20501;-91
2022/07/23 10:25:49;;;;;;;3.33;1.63;;;29.30;85.50;;;;;;4972476;28;20034;-91
2022/07/23 10:29:40;;;;;;;2.83;1.50;;;29.30;85.30;;;;;;4966420;28;20136;-92
2022/07/23 10:53:29;;;;;;;2.72;1.42;;;29.90;84.70;;;;;;5010849;28;20042;-91
2022/07/23 10:55:55;;;;;;;3.30;1.83;;;29.70;83.70;;;;;;4988317;28;20126;-91
2022/07/23 10:58:49;;;;;;;3.33;1.60;;;29.70;83.60;;;;;;4988536;28;20026;-91
2022/07/23 11:01:47;;;;;;;2.65;1.45;;;29.80;82.40;;;;;;4990314;28;20100;-90
2022/07/23 11:10:37;;;;;;;2.80;1.60;;;30.50;82.80;;;;;;4947252;28;20043;-90
2022/07/23 11:13:30;;;;;;;3.10;1.60;;;31.00;82.30;;;;;;4910618;29;20032;-90
2022/07/23 11:16:20;;;;;;;3.60;1.50;;;31.00;78.90;;;;;;4917081;29;20028;-90
2022/07/23 11:19:16;;;;;;;2.90;1.30;;;31.30;78.60;;;;;;4941888;29;20087;-89
2022/07/23 11:22:00;;;;;;;2.40;1.02;;;31.10;76.90;;;;;;4921086;29;20043;-90
2022/07/23 11:28:08;;;;;;;3.15;1.40;;;31.10;77.60;;;;;;4944805;29;20074;-92
2022/07/23 11:31:09;;;;;;;3.05;1.65;;;30.60;77.70;;;;;;4933083;29;20031;-91
2022/07/23 11:34:41;;;;;;;;;;;;;;;;;;;;;
2022/07/23 11:37:59;;;;;;;;;;;;;;;;;;;;;
2022/07/23 11:44:03;;;;;;;3.15;1.38;;;30.70;78.40;;;;;;4881563;29;20515;-91
2022/07/23 11:47:15;;;;;;;2.67;1.50;;;30.20;78.40;;;;;;4929701;29;20200;-90
2022/07/23 11:56:20;;;;;;;2.75;1.52;;;30.80;80.60;;;;;;5033023;23;20057;-91
2022/07/23 12:04:56;;;;;;;2.83;1.40;;;31.40;77.80;;;;;;5109058;22;20144;-92
2022/07/23 12:08:05;;;;;;;3.65;1.55;;;30.80;77.90;;;;;;4992387;28;20022;-92
2022/07/23 12:11:28;;;;;;;3.47;1.50;;;31.10;77.50;;;;;;4999853;28;20026;-92
2022/07/23 12:14:11;;;;;;;2.72;1.45;;;31.50;77.80;;;;;;5002091;23;20042;-91
2022/07/23 12:34:55;;;;;;;2.63;1.52;;;31.80;78.10;;;;;;4893749;29;20028;-93
2022/07/23 12:37:57;;;;;;;;;;;;;;;;;;;;;
2022/07/23 12:41:04;;;;;;;3.50;1.70;;;32.10;76.00;;;;;;4893709;29;20045;-93
2022/07/23 12:43:33;;;;;;;2.53;1.48;;;32.10;75.90;;;;;;4879865;29;20530;-91
2022/07/23 12:46:05;;;;;;;2.60;1.50;;;32.40;75.30;;;;;;4876018;29;20560;-90
2022/07/23 12:48:46;;;;;;;4.05;1.48;;;32.50;75.30;;;;;;4930930;28;20027;-89
2022/07/23 12:51:27;;;;;;;2.70;1.60;;;33.00;74.50;;;;;;4988084;28;20026;-92
2022/07/23 12:54:01;;;;;;;2.47;1.35;;;33.10;73.70;;;;;;4990701;28;20034;-90
2022/07/23 12:56:33;;;;;;;3.13;1.73;;;33.60;72.70;;;;;;4983511;28;20049;-91
2022/07/23 12:59:08;;;;;;;2.33;1.33;;;33.00;72.60;;;;;;4984928;28;20027;-91
2022/07/23 13:01:39;;;;;;;2.97;1.73;;;32.50;73.50;;;;;;4983722;28;20109;-91
2022/07/23 13:04:07;;;;;;;4.30;1.75;;;31.80;74.70;;;;;;4982370;28;20109;-90
2022/07/23 13:06:37;;;;;;;3.15;1.65;;;31.80;75.10;;;;;;4989654;28;20034;-91
2022/07/23 13:09:08;;;;;;;2.60;1.30;;;31.40;75.80;;;;;;4993005;28;20064;-91
2022/07/23 13:11:34;;;;;;;3.30;1.88;;;31.50;76.10;;;;;;4987985;28;20049;-91
2022/07/23 13:14:04;;;;;;;3.03;1.77;;;31.70;75.10;;;;;;4989741;28;20046;-91
2022/07/23 13:16:31;;;;;;;3.35;1.67;;;32.00;74.10;;;;;;5005435;28;20022;-91
2022/07/23 13:18:57;;;;;;;4.00;2.05;;;32.10;74.20;;;;;;4988449;28;20507;-91
2022/07/23 13:21:24;;;;;;;3.00;1.83;;;32.50;72.70;;;;;;4989628;28;20462;-92
2022/07/23 13:23:49;;;;;;;3.30;1.40;;;32.60;73.40;;;;;;4992841;28;20033;-91
2022/07/23 13:26:18;;;;;;;2.97;1.77;;;32.10;74.40;;;;;;4989066;28;20034;-91
2022/07/23 13:28:47;;;;;;;3.00;1.80;;;31.70;74.70;;;;;;4991187;28;20124;-91
2022/07/23 13:31:19;;;;;;;3.42;1.83;;;31.60;75.20;;;;;;4987133;28;20031;-91
2022/07/23 13:33:47;;;;;;;3.08;2.10;;;31.30;74.70;;;;;;4990188;28;20660;-91
2022/07/23 13:36:26;;;;;;;3.75;1.88;;;31.30;75.10;;;;;;4993242;28;20086;-91
2022/07/23 13:39:04;;;;;;;3.45;1.75;;;30.90;74.40;;;;;;4986898;28;20026;-87
2022/07/23 13:41:30;;;;;;;3.28;1.75;;;30.90;75.40;;;;;;4992253;28;20514;-88
2022/07/23 13:43:56;;;;;;;3.15;1.85;;;31.50;74.80;;;;;;4993300;28;20157;-89
2022/07/23 13:46:25;;;;;;;2.90;1.67;;;31.80;73.80;;;;;;4991902;28;20202;-87
2022/07/23 13:48:51;;;;;;;3.95;1.60;;;32.20;73.20;;;;;;4992658;28;20340;-89
2022/07/23 13:51:19;;;;;;;3.13;1.52;;;32.20;71.80;;;;;;4991913;28;20066;-88
2022/07/23 13:53:49;;;;;;;3.33;1.65;;;32.40;72.30;;;;;;4990735;28;20415;-88
2022/07/23 13:56:20;;;;;;;3.10;1.60;;;32.70;72.80;;;;;;4991596;28;20030;-88
2022/07/23 13:59:04;;;;;;;2.97;1.63;;;33.20;72.00;;;;;;4990371;28;20022;-92
2022/07/23 14:02:01;;;;;;;3.42;1.98;;;33.50;70.90;;;;;;4988074;28;20034;-92
2022/07/23 14:04:34;;;;;;;2.88;1.52;;;33.30;70.10;;;;;;4991876;28;20114;-91
2022/07/23 14:07:01;;;;;;;3.42;1.52;;;32.90;70.30;;;;;;4992332;28;20125;-92
2022/07/23 14:09:38;;;;;;;2.70;1.40;;;32.10;70.60;;;;;;4987659;28;20022;-92
2022/07/23 14:12:24;;;;;;;2.80;1.50;;;31.70;71.60;;;;;;4986600;28;20034;-92
2022/07/23 14:14:53;;;;;;;3.05;1.60;;;31.50;71.80;;;;;;4990846;28;20491;-92
2022/07/23 14:17:22;;;;;;;2.75;1.50;;;31.10;73.10;;;;;;4984812;28;20030;-90
2022/07/23 14:19:50;;;;;;;2.63;1.52;;;31.10;73.00;;;;;;4992499;28;20080;-92
2022/07/23 14:22:15;;;;;;;2.83;1.52;;;31.00;73.90;;;;;;4990894;28;20027;-92
2022/07/23 14:24:46;;;;;;;2.80;1.70;;;31.10;74.30;;;;;;4984166;28;20084;-91
2022/07/23 14:27:12;;;;;;;3.35;1.80;;;31.50;73.10;;;;;;4990962;28;20026;-92
2022/07/23 14:29:38;;;;;;;3.58;1.60;;;31.90;71.00;;;;;;4984888;28;20025;-92
2022/07/23 14:32:08;;;;;;;3.88;1.70;;;32.40;71.40;;;;;;4988386;28;20034;-92
2022/07/23 14:34:34;;;;;;;3.10;1.75;;;32.50;71.40;;;;;;4984621;28;20030;-91
2022/07/23 14:37:12;;;;;;;3.75;1.83;;;32.50;71.80;;;;;;4991866;28;20026;-93
2022/07/23 14:39:44;;;;;;;3.92;1.85;;;32.60;70.70;;;;;;4991285;28;20022;-91
2022/07/23 14:42:20;;;;;;;3.25;1.65;;;32.70;71.00;;;;;;4991422;28;20030;-93
2022/07/23 14:44:55;;;;;;;3.85;1.98;;;32.30;70.90;;;;;;4989879;28;20141;-91
2022/07/23 14:47:23;;;;;;;5.38;1.98;;;32.00;71.30;;;;;;4989843;28;20034;-92
2022/07/23 14:52:46;;;;;;;2.97;1.70;;;32.00;70.90;;;;;;4983567;28;20034;-92
2022/07/23 14:55:47;;;;;;;;;;;;;;;;;;;;;
2022/07/23 14:58:18;;;;;;;2.83;1.58;;;32.30;69.10;;;;;;4987946;28;20105;-93
2022/07/23 15:00:44;;;;;;;2.55;1.50;;;32.80;70.50;;;;;;4989195;28;20031;-91
2022/07/23 15:03:18;;;;;;;2.45;1.42;;;33.20;67.60;;;;;;4989694;28;20052;-91
2022/07/23 15:05:44;;;;;;;6.07;1.77;;;33.10;67.60;;;;;;4989390;28;20081;-93
2022/07/23 15:08:18;;;;;;;4.05;2.22;;;33.30;67.80;;;;;;4990619;28;20034;-92
2022/07/23 15:10:56;;;;;;;3.58;1.77;;;33.20;67.40;;;;;;4989789;28;20034;-93
2022/07/23 15:13:24;;;;;;;3.90;1.85;;;32.50;67.80;;;;;;4976296;28;20124;-92
2022/07/23 15:16:00;;;;;;;2.65;1.50;;;32.00;68.60;;;;;;4991076;28;20499;-90
2022/07/23 15:18:26;;;;;;;2.47;1.55;;;31.60;69.30;;;;;;4988590;28;20058;-90
2022/07/23 15:20:54;;;;;;;3.28;1.80;;;31.00;68.90;;;;;;4990972;28;20057;-90
2022/07/23 15:23:23;;;;;;;3.67;1.83;;;31.10;68.90;;;;;;4988934;28;20070;-90
2022/07/23 15:25:53;;;;;;;4.22;1.58;;;30.90;69.90;;;;;;4985437;28;20023;-91
2022/07/23 15:28:20;;;;;;;4.50;2.17;;;30.70;70.30;;;;;;4985148;28;20069;-89
2022/07/23 15:30:48;;;;;;;3.53;2.00;;;31.60;70.10;;;;;;4988539;28;20041;-89
2022/07/23 15:33:28;;;;;;;2.78;1.40;;;32.30;68.90;;;;;;4990932;28;20097;-90
2022/07/23 15:36:13;;;;;;;3.45;1.67;;;33.00;67.40;;;;;;4988620;28;20078;-91
2022/07/23 15:39:05;;;;;;;2.38;1.45;;;32.80;67.60;;;;;;4988862;28;20030;-90
2022/07/23 15:41:49;;;;;;;3.65;1.70;;;32.30;68.40;;;;;;5003708;28;20025;-91
2022/07/23 15:44:18;;;;;;;5.55;1.95;;;32.30;68.60;;;;;;4990426;28;20037;-91
2022/07/23 15:47:14;;;;;;;2.92;1.55;;;32.80;68.50;;;;;;5003395;28;20030;-92
2022/07/23 15:50:37;;;;;;;3.60;1.63;;;33.00;68.50;;;;;;4991762;28;20053;-90
2022/07/23 15:53:33;;;;;;;3.10;1.70;;;32.50;68.70;;;;;;4988709;28;20038;-90
2022/07/23 15:56:03;;;;;;;3.00;1.70;;;32.30;69.30;;;;;;4988363;28;20039;-90
2022/07/23 15:58:34;;;;;;;3.25;1.80;;;32.00;69.50;;;;;;4990840;28;20033;-91
2022/07/23 16:01:16;;;;;;;3.40;1.73;;;31.80;69.60;;;;;;4989574;28;20519;-90
2022/07/23 16:04:20;;;;;;;3.75;1.75;;;32.10;70.00;;;;;;5003110;28;20030;-90
2022/07/23 16:06:56;;;;;;;3.42;1.83;;;32.10;69.20;;;;;;4999125;28;20034;-91
2022/07/23 16:09:42;;;;;;;2.97;1.52;;;31.80;69.20;;;;;;4990066;28;20570;-91
2022/07/23 16:15:34;;;;;;;;;;;;;;;;;;;;;
2022/07/23 16:18:50;;;;;;;3.58;2.05;;;31.20;70.20;;;;;;4988787;28;20311;-91
2022/07/23 16:32:41;;;;;;;;;;;;;;;;;;;;;
2022/07/23 16:38:58;;;;;;;2.75;1.63;;;29.90;72.80;;;;;;4919956;28;20425;-92
2022/07/23 16:41:51;;;;;;;3.55;1.75;;;29.60;73.20;;;;;;4961507;28;20091;-91
2022/07/23 16:48:07;;;;;;;3.58;1.92;;;29.40;73.00;;;;;;4940710;28;20060;-91
2022/07/23 16:51:17;;;;;;;3.78;1.95;;;29.20;73.70;;;;;;4973838;28;20451;-92
2022/07/23 16:54:02;;;;;;;;;;;;;;;;;;;;;
2022/07/23 16:57:27;;;;;;;;;;;;;;;;;;;;;
2022/07/23 17:00:12;;;;;;;3.80;2.20;;;29.30;75.30;;;;;;4984709;28;20114;-92
2022/07/23 17:02:49;;;;;;;3.60;2.20;;;29.10;75.60;;;;;;4982051;28;20041;-91
2022/07/23 17:05:52;;;;;;;3.63;2.13;;;29.10;76.00;;;;;;4985821;28;20062;-92
2022/07/23 17:08:37;;;;;;;4.30;2.08;;;29.20;76.20;;;;;;4987295;28;20026;-92
2022/07/23 17:11:30;;;;;;;3.58;2.00;;;29.20;76.30;;;;;;5009921;23;20053;-92
2022/07/23 17:14:24;;;;;;;3.50;2.10;;;29.10;76.60;;;;;;4995994;28;20113;-91
2022/07/23 17:17:00;;;;;;;3.45;1.83;;;29.00;76.60;;;;;;4995567;28;20018;-93